sensor_id;sensor_type;location;lat;lon;timestamp;pressure;altitude;pressure_sealevel;temperature;humidity
59391;BME280;53405;57.012;40.984;2023-03-24T00:01:59;98797.81;;;6.88;74.09
59391;BME280;53405;57.012;40.984;2023-03-24T00:04:27;98810.47;;;6.84;74.71
59391;BME280;53405;57.012;40.984;2023-03-24T00:06:54;98791.59;;;6.89;74.06
59391;BME280;53405;57.012;40.984;2023-03-24T00:09:21;98750.75;;;6.58;74.37
59391;BME280;53405;57.012;40.984;2023-03-24T00:11:49;98798.97;;;7.00;73.71
59391;BME280;53405;57.012;40.984;2023-03-24T00:14:16;98788.13;;;7.03;73.51
59391;BME280;53405;57.012;40.984;2023-03-24T00:16:44;98774.16;;;6.96;73.36
59391;BME280;53405;57.012;40.984;2023-03-24T00:19:12;98778.66;;;7.02;73.44
59391;BME280;53405;57.012;40.984;2023-03-24T00:21:42;98756.31;;;6.85;73.75
59391;BME280;53405;57.012;40.984;2023-03-24T00:24:11;98768.44;;;7.08;73.53
59391;BME280;53405;57.012;40.984;2023-03-24T00:26:39;98758.97;;;7.07;72.33
59391;BME280;53405;57.012;40.984;2023-03-24T00:29:09;98733.31;;;6.80;72.68
59391;BME280;53405;57.012;40.984;2023-03-24T00:31:39;98732.03;;;6.76;72.66
59391;BME280;53405;57.012;40.984;2023-03-24T00:34:08;98753.44;;;6.80;73.16
59391;BME280;53405;57.012;40.984;2023-03-24T00:36:36;98727.28;;;6.80;72.98
59391;BME280;53405;57.012;40.984;2023-03-24T00:39:04;98749.25;;;6.85;72.84
59391;BME280;53405;57.012;40.984;2023-03-24T00:41:32;98741.34;;;6.79;73.31
59391;BME280;53405;57.012;40.984;2023-03-24T00:44:00;98745.13;;;6.91;73.27
59391;BME280;53405;57.012;40.984;2023-03-24T00:46:31;98738.03;;;7.07;72.14
59391;BME280;53405;57.012;40.984;2023-03-24T00:49:06;98746.25;;;7.03;72.26
59391;BME280;53405;57.012;40.984;2023-03-24T00:51:41;98729.63;;;7.11;71.76
59391;BME280;53405;57.012;40.984;2023-03-24T00:54:10;98730.75;;;6.87;72.42
59391;BME280;53405;57.012;40.984;2023-03-24T00:56:39;98686.09;;;6.67;72.65
59391;BME280;53405;57.012;40.984;2023-03-24T00:59:07;98730.31;;;6.83;72.43
59391;BME280;53405;57.012;40.984;2023-03-24T01:01:36;98670.47;;;6.59;72.01
59391;BME280;53405;57.012;40.984;2023-03-24T01:04:05;98697.22;;;6.76;72.18
59391;BME280;53405;57.012;40.984;2023-03-24T01:06:35;98725.88;;;6.99;71.98
59391;BME280;53405;57.012;40.984;2023-03-24T01:09:05;98717.38;;;6.97;72.05
59391;BME280;53405;57.012;40.984;2023-03-24T01:11:36;98713.47;;;7.08;71.54
59391;BME280;53405;57.012;40.984;2023-03-24T01:14:05;98698.19;;;6.90;71.98
59391;BME280;53405;57.012;40.984;2023-03-24T01:16:42;98709.34;;;6.98;72.00
59391;BME280;53405;57.012;40.984;2023-03-24T01:19:09;98701.28;;;7.00;71.96
59391;BME280;53405;57.012;40.984;2023-03-24T01:21:37;98715.00;;;7.23;71.73
59391;BME280;53405;57.012;40.984;2023-03-24T01:24:05;98709.22;;;7.28;71.34
59391;BME280;53405;57.012;40.984;2023-03-24T01:26:33;98681.19;;;7.00;71.18
59391;BME280;53405;57.012;40.984;2023-03-24T01:29:00;98711.13;;;7.13;71.25
59391;BME280;53405;57.012;40.984;2023-03-24T01:31:27;98708.03;;;7.09;71.29
59391;BME280;53405;57.012;40.984;2023-03-24T01:33:55;98703.88;;;7.15;71.42
59391;BME280;53405;57.012;40.984;2023-03-24T01:36:22;98688.09;;;7.08;71.26
59391;BME280;53405;57.012;40.984;2023-03-24T01:38:50;98690.97;;;7.13;71.52
59391;BME280;53405;57.012;40.984;2023-03-24T01:41:17;98697.00;;;7.14;71.34
59391;BME280;53405;57.012;40.984;2023-03-24T01:43:44;98679.25;;;7.09;71.32
59391;BME280;53405;57.012;40.984;2023-03-24T01:48:52;98691.72;;;7.07;71.68
59391;BME280;53405;57.012;40.984;2023-03-24T01:51:32;98679.06;;;7.11;71.48
59391;BME280;53405;57.012;40.984;2023-03-24T01:54:07;98678.19;;;7.03;72.68
59391;BME280;53405;57.012;40.984;2023-03-24T01:56:40;98662.03;;;7.00;71.89
59391;BME280;53405;57.012;40.984;2023-03-24T01:59:12;98659.19;;;6.95;71.89
59391;BME280;53405;57.012;40.984;2023-03-24T02:01:46;98667.91;;;7.02;72.32
59391;BME280;53405;57.012;40.984;2023-03-24T02:04:36;98676.44;;;7.11;72.10
59391;BME280;53405;57.012;40.984;2023-03-24T02:07:17;98668.59;;;7.11;71.68
59391;BME280;53405;57.012;40.984;2023-03-24T02:09:46;98661.59;;;6.96;72.60
59391;BME280;53405;57.012;40.984;2023-03-24T02:12:14;98670.44;;;7.17;71.96
59391;BME280;53405;57.012;40.984;2023-03-24T02:14:42;98665.97;;;7.11;72.08
59391;BME280;53405;57.012;40.984;2023-03-24T02:32:20;98662.16;;;6.92;73.06
59391;BME280;53405;57.012;40.984;2023-03-24T02:40:20;98539.66;;;6.15;73.50
59391;BME280;53405;57.012;40.984;2023-03-24T02:48:29;98640.44;;;6.91;73.24
59391;BME280;53405;57.012;40.984;2023-03-24T02:51:25;98608.63;;;6.73;73.36
59391;BME280;53405;57.012;40.984;2023-03-24T02:57:50;98619.25;;;6.86;73.94
59391;BME280;53405;57.012;40.984;2023-03-24T03:03:22;98633.88;;;6.80;75.52
59391;BME280;53405;57.012;40.984;2023-03-24T03:06:00;98560.03;;;6.20;76.05
59391;BME280;53405;57.012;40.984;2023-03-24T03:08:30;98620.34;;;6.55;76.18
59391;BME280;53405;57.012;40.984;2023-03-24T03:11:01;98608.59;;;6.66;76.12
59391;BME280;53405;57.012;40.984;2023-03-24T03:13:35;98581.47;;;6.52;75.76
59391;BME280;53405;57.012;40.984;2023-03-24T03:16:07;98616.44;;;6.66;75.15
59391;BME280;53405;57.012;40.984;2023-03-24T03:18:44;98601.91;;;6.63;75.60
59391;BME280;53405;57.012;40.984;2023-03-24T03:21:19;98619.81;;;6.81;74.69
59391;BME280;53405;57.012;40.984;2023-03-24T03:23:53;98608.94;;;6.63;75.32
59391;BME280;53405;57.012;40.984;2023-03-24T03:26:24;98535.59;;;6.13;75.83
59391;BME280;53405;57.012;40.984;2023-03-24T03:28:56;98607.31;;;6.62;76.01
59391;BME280;53405;57.012;40.984;2023-03-24T03:31:42;98601.91;;;6.63;76.18
59391;BME280;53405;57.012;40.984;2023-03-24T03:36:55;98598.50;;;6.63;77.15
59391;BME280;53405;57.012;40.984;2023-03-24T03:39:30;98602.59;;;6.72;76.84
59391;BME280;53405;57.012;40.984;2023-03-24T03:42:02;98580.75;;;6.80;76.34
59391;BME280;53405;57.012;40.984;2023-03-24T03:44:31;98589.91;;;6.91;76.23
59391;BME280;53405;57.012;40.984;2023-03-24T03:46:59;98595.00;;;6.77;77.02
59391;BME280;53405;57.012;40.984;2023-03-24T03:49:37;98591.59;;;6.77;77.38
59391;BME280;53405;57.012;40.984;2023-03-24T03:52:04;98594.16;;;6.70;77.64
59391;BME280;53405;57.012;40.984;2023-03-24T03:54:32;98554.75;;;6.35;77.97
59391;BME280;53405;57.012;40.984;2023-03-24T03:57:00;98581.59;;;6.44;79.37
59391;BME280;53405;57.012;40.984;2023-03-24T03:59:49;98594.69;;;6.44;79.98
59391;BME280;53405;57.012;40.984;2023-03-24T04:05:17;98587.56;;;6.38;80.56
59391;BME280;53405;57.012;40.984;2023-03-24T04:08:08;98589.78;;;6.19;81.30
59391;BME280;53405;57.012;40.984;2023-03-24T04:20:25;98593.84;;;6.07;82.43
59391;BME280;53405;57.012;40.984;2023-03-24T04:23:10;98573.75;;;6.07;82.69
59391;BME280;53405;57.012;40.984;2023-03-24T04:25:48;98543.31;;;6.00;82.48
59391;BME280;53405;57.012;40.984;2023-03-24T04:28:38;98576.88;;;6.18;82.69
59391;BME280;53405;57.012;40.984;2023-03-24T04:31:30;98539.13;;;6.05;82.69
59391;BME280;53405;57.012;40.984;2023-03-24T04:34:15;98568.06;;;6.19;82.12
59391;BME280;53405;57.012;40.984;2023-03-24T04:39:41;98560.22;;;6.19;83.45
59391;BME280;53405;57.012;40.984;2023-03-24T04:42:33;98562.81;;;6.19;83.23
59391;BME280;53405;57.012;40.984;2023-03-24T04:45:05;98538.97;;;6.07;83.24
59391;BME280;53405;57.012;40.984;2023-03-24T04:47:46;98534.38;;;6.09;83.63
59391;BME280;53405;57.012;40.984;2023-03-24T04:50:36;98548.69;;;6.13;83.73
59391;BME280;53405;57.012;40.984;2023-03-24T04:53:10;98564.91;;;6.08;84.69
59391;BME280;53405;57.012;40.984;2023-03-24T04:58:56;98552.13;;;5.99;85.62
59391;BME280;53405;57.012;40.984;2023-03-24T05:01:26;98559.06;;;6.06;84.93
59391;BME280;53405;57.012;40.984;2023-03-24T05:04:16;98556.38;;;6.00;85.87
59391;BME280;53405;57.012;40.984;2023-03-24T05:06:43;98556.81;;;5.88;86.97
59391;BME280;53405;57.012;40.984;2023-03-24T05:09:18;98565.91;;;5.92;87.16
59391;BME280;53405;57.012;40.984;2023-03-24T05:11:47;98554.56;;;5.85;87.61
59391;BME280;53405;57.012;40.984;2023-03-24T05:14:16;98563.75;;;5.81;87.45
59391;BME280;53405;57.012;40.984;2023-03-24T05:16:44;98553.31;;;5.81;88.46
59391;BME280;53405;57.012;40.984;2023-03-24T05:19:12;98564.75;;;5.80;88.71
59391;BME280;53405;57.012;40.984;2023-03-24T05:21:40;98562.31;;;5.78;89.42
59391;BME280;53405;57.012;40.984;2023-03-24T05:24:08;98559.97;;;5.84;89.93
59391;BME280;53405;57.012;40.984;2023-03-24T05:26:35;98528.09;;;5.73;88.63
59391;BME280;53405;57.012;40.984;2023-03-24T05:29:14;98562.06;;;5.88;88.41
59391;BME280;53405;57.012;40.984;2023-03-24T05:31:41;98564.59;;;5.96;88.82
59391;BME280;53405;57.012;40.984;2023-03-24T05:34:15;98552.94;;;5.99;88.78
59391;BME280;53405;57.012;40.984;2023-03-24T05:36:49;98568.00;;;6.12;88.61
59391;BME280;53405;57.012;40.984;2023-03-24T05:39:20;98569.44;;;6.00;88.55
59391;BME280;53405;57.012;40.984;2023-03-24T05:41:57;98581.31;;;6.02;88.20
59391;BME280;53405;57.012;40.984;2023-03-24T05:44:25;98559.78;;;6.00;88.45
59391;BME280;53405;57.012;40.984;2023-03-24T05:47:09;98558.75;;;6.16;87.70
59391;BME280;53405;57.012;40.984;2023-03-24T05:49:38;98547.25;;;6.10;87.92
59391;BME280;53405;57.012;40.984;2023-03-24T05:52:06;98546.84;;;6.28;88.23
59391;BME280;53405;57.012;40.984;2023-03-24T05:54:37;98556.19;;;6.38;88.15
59391;BME280;53405;57.012;40.984;2023-03-24T05:57:19;98562.69;;;6.42;87.72
59391;BME280;53405;57.012;40.984;2023-03-24T06:00:06;98537.72;;;6.24;87.16
59391;BME280;53405;57.012;40.984;2023-03-24T06:03:03;98538.44;;;6.33;86.87
59391;BME280;53405;57.012;40.984;2023-03-24T06:05:37;98537.94;;;6.44;87.29
59391;BME280;53405;57.012;40.984;2023-03-24T06:08:04;98540.06;;;6.56;87.46
59391;BME280;53405;57.012;40.984;2023-03-24T06:10:35;98544.25;;;6.50;86.31
59391;BME280;53405;57.012;40.984;2023-03-24T06:13:03;98538.28;;;6.56;86.44
59391;BME280;53405;57.012;40.984;2023-03-24T06:15:32;98548.09;;;6.54;86.33
59391;BME280;53405;57.012;40.984;2023-03-24T06:18:15;98544.34;;;6.63;86.19
59391;BME280;53405;57.012;40.984;2023-03-24T06:20:43;98533.22;;;6.55;85.30
59391;BME280;53405;57.012;40.984;2023-03-24T06:23:17;98522.81;;;6.40;85.43
59391;BME280;53405;57.012;40.984;2023-03-24T06:26:09;98539.88;;;6.57;85.70
59391;BME280;53405;57.012;40.984;2023-03-24T06:28:57;98539.63;;;6.52;86.12
59391;BME280;53405;57.012;40.984;2023-03-24T06:31:37;98546.13;;;6.56;85.51
59391;BME280;53405;57.012;40.984;2023-03-24T06:34:05;98542.25;;;6.52;85.93
59391;BME280;53405;57.012;40.984;2023-03-24T06:36:32;98547.28;;;6.54;85.90
59391;BME280;53405;57.012;40.984;2023-03-24T06:39:02;98544.31;;;6.57;87.03
59391;BME280;53405;57.012;40.984;2023-03-24T06:41:33;98545.94;;;6.58;86.69
59391;BME280;53405;57.012;40.984;2023-03-24T06:44:01;98545.78;;;6.44;86.87
59391;BME280;53405;57.012;40.984;2023-03-24T06:46:30;98543.59;;;6.48;87.22
59391;BME280;53405;57.012;40.984;2023-03-24T06:48:57;98538.63;;;6.53;88.07
59391;BME280;53405;57.012;40.984;2023-03-24T06:51:25;98543.22;;;6.51;88.13
59391;BME280;53405;57.012;40.984;2023-03-24T06:53:53;98537.16;;;6.44;87.94
59391;BME280;53405;57.012;40.984;2023-03-24T06:56:21;98536.50;;;6.20;88.88
59391;BME280;53405;57.012;40.984;2023-03-24T06:58:55;98546.53;;;6.17;89.01
59391;BME280;53405;57.012;40.984;2023-03-24T07:01:30;98542.78;;;6.26;89.32
59391;BME280;53405;57.012;40.984;2023-03-24T07:04:03;98537.38;;;6.27;90.68
59391;BME280;53405;57.012;40.984;2023-03-24T07:06:31;98519.50;;;6.09;90.11
59391;BME280;53405;57.012;40.984;2023-03-24T07:09:10;98535.69;;;6.20;89.75
59391;BME280;53405;57.012;40.984;2023-03-24T07:11:38;98541.72;;;6.20;90.40
59391;BME280;53405;57.012;40.984;2023-03-24T07:14:06;98500.56;;;5.92;90.53
59391;BME280;53405;57.012;40.984;2023-03-24T07:16:34;98539.13;;;6.20;91.22
59391;BME280;53405;57.012;40.984;2023-03-24T07:19:28;98513.47;;;6.09;91.56
59391;BME280;53405;57.012;40.984;2023-03-24T07:22:13;98508.72;;;6.19;91.07
59391;BME280;53405;57.012;40.984;2023-03-24T07:25:00;98515.19;;;6.02;92.11
59391;BME280;53405;57.012;40.984;2023-03-24T07:27:40;98513.75;;;5.99;92.99
59391;BME280;53405;57.012;40.984;2023-03-24T07:30:08;98488.81;;;5.96;93.55
59391;BME280;53405;57.012;40.984;2023-03-24T07:32:41;98512.59;;;6.23;93.21
59391;BME280;53405;57.012;40.984;2023-03-24T07:35:11;98512.97;;;6.20;93.10
59391;BME280;53405;57.012;40.984;2023-03-24T07:37:38;98512.53;;;6.17;92.82
59391;BME280;53405;57.012;40.984;2023-03-24T07:40:07;98500.59;;;6.07;93.41
59391;BME280;53405;57.012;40.984;2023-03-24T07:42:38;98513.34;;;6.17;94.30
59391;BME280;53405;57.012;40.984;2023-03-24T07:45:28;98517.16;;;6.36;94.46
59391;BME280;53405;57.012;40.984;2023-03-24T07:47:57;98506.94;;;6.41;94.15
59391;BME280;53405;57.012;40.984;2023-03-24T07:50:35;98512.63;;;6.45;93.90
59391;BME280;53405;57.012;40.984;2023-03-24T07:53:15;98509.41;;;6.49;93.21
59391;BME280;53405;57.012;40.984;2023-03-24T07:55:46;98503.72;;;6.39;93.23
59391;BME280;53405;57.012;40.984;2023-03-24T07:58:20;98474.50;;;6.14;93.77
59391;BME280;53405;57.012;40.984;2023-03-24T08:01:01;98504.81;;;6.30;93.69
59391;BME280;53405;57.012;40.984;2023-03-24T08:03:38;98506.56;;;6.44;93.11
59391;BME280;53405;57.012;40.984;2023-03-24T08:06:15;98499.09;;;6.41;94.06
59391;BME280;53405;57.012;40.984;2023-03-24T08:08:50;98499.53;;;6.45;93.86
59391;BME280;53405;57.012;40.984;2023-03-24T08:11:17;98495.06;;;6.39;94.26
59391;BME280;53405;57.012;40.984;2023-03-24T08:13:44;98491.34;;;6.11;95.12
59391;BME280;53405;57.012;40.984;2023-03-24T08:16:12;98494.91;;;6.25;95.16
59391;BME280;53405;57.012;40.984;2023-03-24T08:18:39;98493.09;;;6.26;94.98
59391;BME280;53405;57.012;40.984;2023-03-24T08:21:06;98491.38;;;6.33;95.04
59391;BME280;53405;57.012;40.984;2023-03-24T08:23:33;98481.28;;;6.30;95.01
59391;BME280;53405;57.012;40.984;2023-03-24T08:26:02;98477.41;;;6.26;95.33
59391;BME280;53405;57.012;40.984;2023-03-24T08:28:29;98478.13;;;6.35;95.77
59391;BME280;53405;57.012;40.984;2023-03-24T08:30:57;98496.47;;;6.41;95.39
59391;BME280;53405;57.012;40.984;2023-03-24T08:33:24;98485.13;;;6.56;95.29
59391;BME280;53405;57.012;40.984;2023-03-24T08:35:53;98485.53;;;6.31;95.02
59391;BME280;53405;57.012;40.984;2023-03-24T08:38:23;98484.66;;;6.24;95.87
59391;BME280;53405;57.012;40.984;2023-03-24T08:41:01;98481.22;;;6.23;96.00
59391;BME280;53405;57.012;40.984;2023-03-24T08:43:33;98485.94;;;6.13;96.68
59391;BME280;53405;57.012;40.984;2023-03-24T08:46:02;98478.19;;;6.20;96.60
59391;BME280;53405;57.012;40.984;2023-03-24T08:48:29;98448.03;;;6.02;96.72
59391;BME280;53405;57.012;40.984;2023-03-24T08:50:57;98484.34;;;6.12;96.80
59391;BME280;53405;57.012;40.984;2023-03-24T08:53:24;98478.56;;;6.17;96.76
59391;BME280;53405;57.012;40.984;2023-03-24T08:55:51;98477.13;;;6.14;96.72
59391;BME280;53405;57.012;40.984;2023-03-24T08:58:19;98487.44;;;6.22;96.92
59391;BME280;53405;57.012;40.984;2023-03-24T09:00:47;98449.91;;;6.08;97.02
59391;BME280;53405;57.012;40.984;2023-03-24T09:03:17;98443.81;;;6.01;97.58
59391;BME280;53405;57.012;40.984;2023-03-24T09:05:48;98443.50;;;6.11;96.93
59391;BME280;53405;57.012;40.984;2023-03-24T09:08:17;98442.19;;;6.00;96.59
59391;BME280;53405;57.012;40.984;2023-03-24T09:10:45;98471.91;;;6.14;96.74
59391;BME280;53405;57.012;40.984;2023-03-24T09:13:18;98473.94;;;6.19;97.11
59391;BME280;53405;57.012;40.984;2023-03-24T09:15:51;98466.78;;;6.27;97.79
59391;BME280;53405;57.012;40.984;2023-03-24T09:18:20;98476.28;;;6.57;95.66
59391;BME280;53405;57.012;40.984;2023-03-24T09:20:48;98466.03;;;6.33;95.94
59391;BME280;53405;57.012;40.984;2023-03-24T09:23:15;98480.66;;;6.49;97.00
59391;BME280;53405;57.012;40.984;2023-03-24T09:25:43;98472.63;;;6.51;96.58
59391;BME280;53405;57.012;40.984;2023-03-24T09:28:11;98470.34;;;6.69;96.53
59391;BME280;53405;57.012;40.984;2023-03-24T09:30:39;98470.78;;;6.73;94.83
59391;BME280;53405;57.012;40.984;2023-03-24T09:33:07;98470.78;;;6.45;95.51
59391;BME280;53405;57.012;40.984;2023-03-24T09:35:36;98467.16;;;6.46;96.21
59391;BME280;53405;57.012;40.984;2023-03-24T09:38:03;98417.19;;;6.12;96.07
59391;BME280;53405;57.012;40.984;2023-03-24T09:40:35;98462.66;;;6.40;96.07
59391;BME280;53405;57.012;40.984;2023-03-24T09:45:52;98473.06;;;6.33;96.31
59391;BME280;53405;57.012;40.984;2023-03-24T09:51:02;98480.88;;;6.26;97.18
59391;BME280;53405;57.012;40.984;2023-03-24T09:53:51;98472.56;;;6.23;97.23
59391;BME280;53405;57.012;40.984;2023-03-24T09:56:22;98476.56;;;6.19;97.71
59391;BME280;53405;57.012;40.984;2023-03-24T09:59:34;98475.50;;;6.13;97.98
59391;BME280;53405;57.012;40.984;2023-03-24T10:01:55;98475.13;;;6.16;98.32
59391;BME280;53405;57.012;40.984;2023-03-24T10:04:25;98469.53;;;6.19;98.86
59391;BME280;53405;57.012;40.984;2023-03-24T10:07:05;98439.09;;;6.11;98.33
59391;BME280;53405;57.012;40.984;2023-03-24T10:09:35;98472.56;;;6.44;98.20
59391;BME280;53405;57.012;40.984;2023-03-24T10:15:39;98472.81;;;6.49;97.58
59391;BME280;53405;57.012;40.984;2023-03-24T10:18:16;98473.69;;;6.57;97.78
59391;BME280;53405;57.012;40.984;2023-03-24T10:21:21;98468.16;;;6.45;97.39
59391;BME280;53405;57.012;40.984;2023-03-24T10:24:13;98434.09;;;6.38;96.34
59391;BME280;53405;57.012;40.984;2023-03-24T10:27:08;98452.84;;;6.42;96.78
59391;BME280;53405;57.012;40.984;2023-03-24T10:29:38;98462.53;;;6.48;97.29
59391;BME280;53405;57.012;40.984;2023-03-24T10:32:21;98465.59;;;6.51;97.11
59391;BME280;53405;57.012;40.984;2023-03-24T10:34:58;98445.44;;;6.45;97.86
59391;BME280;53405;57.012;40.984;2023-03-24T10:37:34;98474.03;;;6.75;96.76
59391;BME280;53405;57.012;40.984;2023-03-24T10:40:05;98468.34;;;6.72;96.33
59391;BME280;53405;57.012;40.984;2023-03-24T10:42:38;98475.13;;;6.59;96.05
59391;BME280;53405;57.012;40.984;2023-03-24T10:45:11;98442.13;;;6.37;96.23
59391;BME280;53405;57.012;40.984;2023-03-24T10:47:39;98460.97;;;6.54;96.84
59391;BME280;53405;57.012;40.984;2023-03-24T10:50:08;98472.13;;;6.62;96.60
59391;BME280;53405;57.012;40.984;2023-03-24T10:52:41;98476.84;;;6.52;96.64
59391;BME280;53405;57.012;40.984;2023-03-24T10:55:14;98468.94;;;6.67;97.15
59391;BME280;53405;57.012;40.984;2023-03-24T10:57:48;98439.88;;;6.55;96.08
59391;BME280;53405;57.012;40.984;2023-03-24T11:00:22;98469.97;;;6.73;96.21
59391;BME280;53405;57.012;40.984;2023-03-24T11:03:04;98436.84;;;6.51;95.41
59391;BME280;53405;57.012;40.984;2023-03-24T11:05:37;98470.91;;;6.65;95.37
59391;BME280;53405;57.012;40.984;2023-03-24T11:08:32;98460.59;;;6.57;96.33
59391;BME280;53405;57.012;40.984;2023-03-24T11:11:00;98426.50;;;6.43;96.60
59391;BME280;53405;57.012;40.984;2023-03-24T11:13:30;98458.66;;;6.65;95.66
59391;BME280;53405;57.012;40.984;2023-03-24T11:16:14;98424.97;;;6.56;96.06
59391;BME280;53405;57.012;40.984;2023-03-24T11:19:05;98464.41;;;6.82;95.98
59391;BME280;53405;57.012;40.984;2023-03-24T11:21:36;98428.81;;;6.88;94.97
59391;BME280;53405;57.012;40.984;2023-03-24T11:24:11;98453.81;;;6.91;94.87
59391;BME280;53405;57.012;40.984;2023-03-24T11:26:53;98443.16;;;6.64;94.77
59391;BME280;53405;57.012;40.984;2023-03-24T11:29:23;98468.75;;;6.68;95.73
59391;BME280;53405;57.012;40.984;2023-03-24T11:31:55;98448.97;;;6.59;96.33
59391;BME280;53405;57.012;40.984;2023-03-24T11:34:33;98464.56;;;6.74;96.22
59391;BME280;53405;57.012;40.984;2023-03-24T11:37:10;98477.25;;;6.77;96.16
59391;BME280;53405;57.012;40.984;2023-03-24T11:39:38;98476.66;;;6.75;96.40
59391;BME280;53405;57.012;40.984;2023-03-24T11:42:16;98477.94;;;6.86;96.75
59391;BME280;53405;57.012;40.984;2023-03-24T11:58:45;98454.81;;;6.61;95.95
59391;BME280;53405;57.012;40.984;2023-03-24T12:09:45;98494.03;;;6.83;95.66
59391;BME280;53405;57.012;40.984;2023-03-24T12:12:58;98499.38;;;6.75;96.04
59391;BME280;53405;57.012;40.984;2023-03-24T12:31:41;98461.41;;;6.57;97.15
59391;BME280;53405;57.012;40.984;2023-03-24T12:42:41;98493.38;;;6.81;96.26
59391;BME280;53405;57.012;40.984;2023-03-24T12:45:35;98496.44;;;6.84;96.63
59391;BME280;53405;57.012;40.984;2023-03-24T12:51:14;98494.91;;;6.97;96.01
59391;BME280;53405;57.012;40.984;2023-03-24T12:57:11;98506.81;;;6.99;95.82
59391;BME280;53405;57.012;40.984;2023-03-24T12:59:56;98496.28;;;6.93;96.16
59391;BME280;53405;57.012;40.984;2023-03-24T13:02:50;98484.88;;;7.00;96.22
59391;BME280;53405;57.012;40.984;2023-03-24T13:05:29;98483.22;;;6.93;95.76
59391;BME280;53405;57.012;40.984;2023-03-24T13:08:03;98501.94;;;6.96;95.95
59391;BME280;53405;57.012;40.984;2023-03-24T13:10:36;98497.28;;;6.92;96.02
59391;BME280;53405;57.012;40.984;2023-03-24T13:13:17;98506.47;;;6.81;96.55
59391;BME280;53405;57.012;40.984;2023-03-24T13:15:47;98509.44;;;6.99;96.00
59391;BME280;53405;57.012;40.984;2023-03-24T13:21:01;98503.66;;;6.82;97.17
59391;BME280;53405;57.012;40.984;2023-03-24T13:24:02;98401.28;;;6.07;96.82
59391;BME280;53405;57.012;40.984;2023-03-24T13:26:58;98507.31;;;6.60;98.02
59391;BME280;53405;57.012;40.984;2023-03-24T13:32:13;98516.97;;;6.59;98.64
59391;BME280;53405;57.012;40.984;2023-03-24T13:37:39;98526.75;;;6.72;98.75
59391;BME280;53405;57.012;40.984;2023-03-24T13:40:19;98519.50;;;6.74;98.67
59391;BME280;53405;57.012;40.984;2023-03-24T13:50:24;98524.16;;;6.79;97.63
59391;BME280;53405;57.012;40.984;2023-03-24T13:52:52;98529.03;;;6.82;98.04
59391;BME280;53405;57.012;40.984;2023-03-24T13:55:24;98536.19;;;6.73;98.17
59391;BME280;53405;57.012;40.984;2023-03-24T13:58:43;98514.06;;;6.76;98.17
59391;BME280;53405;57.012;40.984;2023-03-24T14:06:49;98527.19;;;6.82;98.30
59391;BME280;53405;57.012;40.984;2023-03-24T14:14:24;98540.84;;;6.99;98.00
59391;BME280;53405;57.012;40.984;2023-03-24T14:17:13;98535.97;;;6.96;97.85
59391;BME280;53405;57.012;40.984;2023-03-24T14:22:29;98537.94;;;6.87;98.05
59391;BME280;53405;57.012;40.984;2023-03-24T14:27:51;98549.81;;;6.90;97.59
59391;BME280;53405;57.012;40.984;2023-03-24T14:30:22;98550.56;;;6.84;97.49
59391;BME280;53405;57.012;40.984;2023-03-24T14:32:54;98545.72;;;6.81;97.96
59391;BME280;53405;57.012;40.984;2023-03-24T14:35:39;98521.38;;;6.80;97.24
59391;BME280;53405;57.012;40.984;2023-03-24T14:40:57;98555.06;;;6.90;97.53
59391;BME280;53405;57.012;40.984;2023-03-24T14:46:31;98567.09;;;6.84;97.90
59391;BME280;53405;57.012;40.984;2023-03-24T14:54:38;98548.44;;;6.94;98.13
59391;BME280;53405;57.012;40.984;2023-03-24T14:57:08;98579.56;;;7.11;98.06
59391;BME280;53405;57.012;40.984;2023-03-24T14:59:59;98583.22;;;7.10;97.08
59391;BME280;53405;57.012;40.984;2023-03-24T15:02:38;98584.75;;;7.04;97.53
59391;BME280;53405;57.012;40.984;2023-03-24T15:13:04;98576.91;;;7.04;96.39
59391;BME280;53405;57.012;40.984;2023-03-24T15:15:31;98589.91;;;7.19;96.50
59391;BME280;53405;57.012;40.984;2023-03-24T15:17:58;98594.09;;;7.13;95.60
59391;BME280;53405;57.012;40.984;2023-03-24T15:20:32;98598.06;;;7.31;95.32
59391;BME280;53405;57.012;40.984;2023-03-24T15:23:06;98602.59;;;7.22;94.33
59391;BME280;53405;57.012;40.984;2023-03-24T15:25:34;98600.81;;;7.22;94.83
59391;BME280;53405;57.012;40.984;2023-03-24T15:28:11;98604.38;;;7.15;95.69
59391;BME280;53405;57.012;40.984;2023-03-24T15:30:44;98616.97;;;7.04;95.50
59391;BME280;53405;57.012;40.984;2023-03-24T15:33:11;98617.34;;;7.23;94.88
59391;BME280;53405;57.012;40.984;2023-03-24T15:35:40;98601.06;;;7.06;94.47
59391;BME280;53405;57.012;40.984;2023-03-24T15:38:19;98614.09;;;7.21;94.91
59391;BME280;53405;57.012;40.984;2023-03-24T15:40:55;98628.31;;;7.12;94.89
59391;BME280;53405;57.012;40.984;2023-03-24T15:43:23;98623.09;;;7.12;95.21
59391;BME280;53405;57.012;40.984;2023-03-24T15:45:54;98626.47;;;7.05;95.47
59391;BME280;53405;57.012;40.984;2023-03-24T15:48:30;98621.59;;;7.02;95.42
59391;BME280;53405;57.012;40.984;2023-03-24T15:51:05;98628.41;;;7.25;94.37
59391;BME280;53405;57.012;40.984;2023-03-24T15:53:46;98604.63;;;6.98;95.02
59391;BME280;53405;57.012;40.984;2023-03-24T15:56:24;98638.22;;;7.16;94.50
59391;BME280;53405;57.012;40.984;2023-03-24T15:59:06;98644.69;;;7.20;94.64
59391;BME280;53405;57.012;40.984;2023-03-24T16:01:36;98640.25;;;7.14;95.03
59391;BME280;53405;57.012;40.984;2023-03-24T16:04:21;98644.16;;;7.03;94.38
59391;BME280;53405;57.012;40.984;2023-03-24T16:07:34;98656.19;;;6.98;94.90
59391;BME280;53405;57.012;40.984;2023-03-24T16:10:38;98654.97;;;6.94;95.73
59391;BME280;53405;57.012;40.984;2023-03-24T16:13:45;98664.34;;;6.88;95.20
59391;BME280;53405;57.012;40.984;2023-03-24T16:16:57;98659.97;;;6.74;95.80
59391;BME280;53405;57.012;40.984;2023-03-24T16:19:36;98667.06;;;6.58;96.28
59391;BME280;53405;57.012;40.984;2023-03-24T16:22:23;98663.53;;;6.66;95.76
59391;BME280;53405;57.012;40.984;2023-03-24T16:25:12;98668.69;;;6.59;97.24
59391;BME280;53405;57.012;40.984;2023-03-24T16:27:52;98660.47;;;6.62;97.05
59391;BME280;53405;57.012;40.984;2023-03-24T16:31:01;98676.44;;;6.89;96.16